createdAt,value
2019-06-26T00:00:15.126Z,99.90
2019-06-26T00:05:15.775Z,99.90
2019-06-26T00:07:46.285Z,99.90
2019-06-26T00:10:17.111Z,99.90
2019-06-26T00:12:47.660Z,99.90
2019-06-26T00:15:18.367Z,99.90
2019-06-26T00:17:48.789Z,99.90
2019-06-26T00:20:19.951Z,99.90
2019-06-26T00:22:50.570Z,99.90
2019-06-26T00:25:21.352Z,99.90
2019-06-26T00:27:52.271Z,99.90
2019-06-26T00:30:22.861Z,99.90
2019-06-26T00:32:53.489Z,99.90
2019-06-26T00:42:53.646Z,99.90
2019-06-26T00:45:24.639Z,99.90
2019-06-26T00:47:55.206Z,99.90
2019-06-26T00:50:26.081Z,99.90
2019-06-26T00:52:56.631Z,99.90
2019-06-26T00:57:56.903Z,99.90
2019-06-26T01:00:33.185Z,99.90
2019-06-26T01:05:33.328Z,99.90
2019-06-26T01:15:35.951Z,99.90
2019-06-26T01:18:07.497Z,99.90
2019-06-26T01:20:39.294Z,99.90
2019-06-26T01:23:10.214Z,99.90
2019-06-26T01:25:40.755Z,99.90
2019-06-26T01:28:11.609Z,99.90
2019-06-26T01:30:42.118Z,99.90
2019-06-26T01:33:12.579Z,99.90
2019-06-26T01:35:44.346Z,99.90
2019-06-26T01:38:14.851Z,99.90
2019-06-26T01:40:45.706Z,99.90
2019-06-26T01:43:16.331Z,99.90
2019-06-26T01:48:17.538Z,99.90
2019-06-26T01:50:49.322Z,99.90
2019-06-26T01:53:19.784Z,99.90
2019-06-26T01:55:50.475Z,99.90
2019-06-26T01:58:20.981Z,99.90
2019-06-26T02:00:51.744Z,99.90
2019-06-26T02:03:22.317Z,99.90
2019-06-26T02:05:52.906Z,99.90
2019-06-26T02:08:23.615Z,99.90
2019-06-26T02:10:54.131Z,99.90
2019-06-26T02:13:25.513Z,99.90
2019-06-26T02:15:56.427Z,99.90
2019-06-26T02:23:40.106Z,99.90
2019-06-26T02:28:40.712Z,99.90
2019-06-26T02:31:11.442Z,99.90
2019-06-26T02:33:42.193Z,99.90
2019-06-26T02:36:12.737Z,99.90
2019-06-26T02:38:43.390Z,99.90
2019-06-26T02:41:13.843Z,99.90
2019-06-26T02:46:14.174Z,99.90
2019-06-26T02:48:44.563Z,99.90
2019-06-26T02:51:14.985Z,99.90
2019-06-26T02:53:45.872Z,99.90
2019-06-26T02:56:16.531Z,99.90
2019-06-26T02:58:47.167Z,99.90
2019-06-26T03:01:17.751Z,99.90
2019-06-26T03:03:48.526Z,99.90
2019-06-26T03:06:19.326Z,99.90
2019-06-26T03:08:49.910Z,99.90
2019-06-26T03:13:50.655Z,99.90
2019-06-26T03:18:50.843Z,99.90
2019-06-26T03:21:21.356Z,99.90
2019-06-26T03:23:52.050Z,99.90
2019-06-26T03:26:22.605Z,99.90
2019-06-26T03:31:22.978Z,99.90
2019-06-26T03:33:53.736Z,99.90
2019-06-26T03:36:24.245Z,99.90
2019-06-26T03:41:24.420Z,99.90
2019-06-26T03:43:54.951Z,99.90
2019-06-26T03:48:55.185Z,99.90
2019-06-26T03:53:55.510Z,99.90
2019-06-26T03:56:26.342Z,99.90
2019-06-26T03:58:56.766Z,99.90
2019-06-26T04:06:28.518Z,99.90
2019-06-26T04:11:28.901Z,99.90
2019-06-26T04:13:59.693Z,99.90
2019-06-26T04:16:30.334Z,99.90
2019-06-26T04:19:00.943Z,99.90
2019-06-26T04:21:32.719Z,99.90
2019-06-26T04:34:02.519Z,99.90
2019-06-26T04:36:33.286Z,99.90
2019-06-26T04:39:04.736Z,99.90
2019-06-26T04:41:35.313Z,99.90
2019-06-26T04:44:05.849Z,99.90
2019-06-26T04:46:36.356Z,99.90
2019-06-26T04:49:06.895Z,99.90
2019-06-26T04:51:37.492Z,99.90
2019-06-26T04:54:07.970Z,99.90
2019-06-26T04:56:38.555Z,99.90
2019-06-26T04:59:09.167Z,99.90
2019-06-26T05:01:39.663Z,99.90
2019-06-26T05:04:10.456Z,99.90
2019-06-26T05:06:41.005Z,99.90
2019-06-26T05:09:11.733Z,99.90
2019-06-26T05:11:42.392Z,99.90
2019-06-26T05:14:13.192Z,99.90
2019-06-26T05:16:43.791Z,99.90
2019-06-26T05:19:14.958Z,99.90
2019-06-26T05:21:45.693Z,99.90
2019-06-26T05:24:16.276Z,99.90
2019-06-26T05:26:46.861Z,99.90
2019-06-26T05:29:17.608Z,99.90
2019-06-26T05:31:48.407Z,99.90
2019-06-26T05:34:19.005Z,99.90
2019-06-26T05:36:49.712Z,99.90
2019-06-26T05:39:20.336Z,99.90
2019-06-26T05:44:21.464Z,99.90
2019-06-26T05:46:52.121Z,99.90
2019-06-26T05:51:53.470Z,99.90
2019-06-26T05:54:24.167Z,99.90
2019-06-26T05:56:54.696Z,99.90
2019-06-26T06:06:55.427Z,99.90
2019-06-26T06:09:26.452Z,99.90
2019-06-26T06:14:27.022Z,99.90
2019-06-26T06:16:57.758Z,99.90
2019-06-26T06:19:28.348Z,99.90
2019-06-26T06:22:00.338Z,99.90
2019-06-26T06:24:30.942Z,99.90
2019-06-26T06:27:01.382Z,99.90
2019-06-26T06:29:32.081Z,99.90
2019-06-26T06:32:03.054Z,99.90
2019-06-26T06:34:34.072Z,99.90
2019-06-26T06:37:04.968Z,99.90
2019-06-26T06:39:35.746Z,99.90
2019-06-26T06:42:06.265Z,99.90
2019-06-26T06:44:37.727Z,99.90
2019-06-26T06:47:09.150Z,99.90
2019-06-26T06:49:40.299Z,99.90
2019-06-26T06:52:10.723Z,99.90
2019-06-26T06:54:41.718Z,99.90
2019-06-26T06:59:42.440Z,99.90
2019-06-26T07:04:44.170Z,99.90
2019-06-26T07:07:14.722Z,99.90
2019-06-26T07:09:46.005Z,99.90
2019-06-26T07:12:20.607Z,99.90
2019-06-26T07:14:49.976Z,99.90
2019-06-26T07:17:21.523Z,99.90
2019-06-26T07:19:53.763Z,99.90
2019-06-26T07:22:24.761Z,99.90
2019-06-26T07:24:56.149Z,99.90
2019-06-26T07:27:26.692Z,99.90
2019-06-26T07:29:57.325Z,99.90
2019-06-26T07:32:28.508Z,99.90
2019-06-26T07:34:59.254Z,99.90
2019-06-26T07:37:29.692Z,99.90
2019-06-26T07:40:02.166Z,99.90
2019-06-26T07:42:33.075Z,99.90
2019-06-26T07:45:05.231Z,99.90
2019-06-26T07:47:43.237Z,99.90
2019-06-26T07:52:38.692Z,99.90
2019-06-26T07:55:12.076Z,99.90
2019-06-26T07:57:42.265Z,99.90
2019-06-26T08:00:13.489Z,99.90
2019-06-26T08:02:44.547Z,99.90
2019-06-26T08:05:15.721Z,99.90
2019-06-26T08:10:16.561Z,99.90
2019-06-26T08:12:47.337Z,99.90
2019-06-26T08:15:19.582Z,99.90
2019-06-26T08:20:22.708Z,99.90
2019-06-26T08:22:53.748Z,99.90
2019-06-26T08:27:54.303Z,99.90
2019-06-26T08:38:08.925Z,99.90
2019-06-26T08:42:56.893Z,99.90
2019-06-26T08:50:27.493Z,99.90
2019-06-26T09:00:30.804Z,99.90
2019-06-26T09:03:01.583Z,99.90
2019-06-26T09:05:46.816Z,99.90
2019-06-26T09:08:05.098Z,99.90
2019-06-26T09:13:05.846Z,99.90
2019-06-26T09:15:36.779Z,99.90
2019-06-26T09:18:07.934Z,99.90
2019-06-26T09:20:40.150Z,99.90
2019-06-26T09:23:10.934Z,99.90
2019-06-26T09:28:12.405Z,99.90
2019-06-26T09:33:13.105Z,99.90
2019-06-26T09:35:43.853Z,99.90
2019-06-26T09:38:15.030Z,99.90
2019-06-26T09:40:45.549Z,99.30
2019-06-26T09:43:19.649Z,98.50
2019-06-26T09:45:50.343Z,97.50
2019-06-26T09:48:21.114Z,97.50
2019-06-26T09:50:52.234Z,98.70
2019-06-26T09:53:23.555Z,98.50
2019-06-26T09:55:54.224Z,97.90
2019-06-26T09:58:25.026Z,98.80
2019-06-26T10:00:55.786Z,97.90
2019-06-26T10:08:26.792Z,97.80
2019-06-26T10:10:57.828Z,99.10
2019-06-26T10:13:28.856Z,97.70
2019-06-26T10:16:00.773Z,98.70
2019-06-26T10:18:32.266Z,97.90
2019-06-26T10:21:03.349Z,97.30
2019-06-26T10:23:34.674Z,97.00
2019-06-26T10:26:05.557Z,95.60
2019-06-26T10:31:07.642Z,95.10
2019-06-26T10:33:38.609Z,95.10
2019-06-26T10:36:09.492Z,94.50
2019-06-26T10:38:40.359Z,94.80
2019-06-26T10:41:11.096Z,94.00
2019-06-26T10:43:42.186Z,94.00
2019-06-26T10:48:43.168Z,94.40
2019-06-26T10:53:43.845Z,93.60
2019-06-26T10:56:14.922Z,93.60
2019-06-26T10:58:45.978Z,93.40
2019-06-26T11:01:16.845Z,91.90
2019-06-26T11:03:47.404Z,91.30
2019-06-26T11:06:18.119Z,91.10
2019-06-26T11:08:49.020Z,90.00
2019-06-26T11:11:19.925Z,90.50
2019-06-26T11:13:50.836Z,89.50
2019-06-26T11:23:51.741Z,91.00
2019-06-26T11:26:22.361Z,90.30
2019-06-26T11:28:53.623Z,91.30
2019-06-26T11:31:24.794Z,91.20
2019-06-26T11:33:55.592Z,91.20
2019-06-26T11:36:26.669Z,91.40
2019-06-26T11:38:57.463Z,91.10
2019-06-26T11:41:28.440Z,91.50
2019-06-26T11:43:59.437Z,91.10
2019-06-26T11:46:30.137Z,91.50
2019-06-26T11:49:04.694Z,91.20
2019-06-26T11:51:35.598Z,91.70
2019-06-26T11:54:06.844Z,91.90
2019-06-26T11:59:07.195Z,92.50
2019-06-26T12:06:37.950Z,92.30
2019-06-26T12:09:09.199Z,92.80
2019-06-26T12:11:40.167Z,92.90
2019-06-26T12:16:41.201Z,93.10
2019-06-26T12:21:42.144Z,93.60
2019-06-26T12:24:12.698Z,93.60
2019-06-26T12:26:43.314Z,93.20
2019-06-26T12:29:14.503Z,92.50
2019-06-26T12:31:45.533Z,92.80
2019-06-26T12:46:46.480Z,91.50
2019-06-26T12:49:17.232Z,90.90
2019-06-26T12:56:48.760Z,87.10
2019-06-26T12:59:19.504Z,86.80
2019-06-26T13:01:50.295Z,88.90
2019-06-26T13:04:21.114Z,88.90
2019-06-26T13:09:23.492Z,86.20
2019-06-26T13:11:54.640Z,87.40
2019-06-26T13:14:25.710Z,90.10
2019-06-26T13:29:27.350Z,82.90
2019-06-26T13:31:57.883Z,84.00
2019-06-26T13:36:58.812Z,82.30
2019-06-26T13:39:29.790Z,81.70
2019-06-26T13:42:00.524Z,80.70
2019-06-26T13:44:31.183Z,80.10
2019-06-26T13:47:02.605Z,81.90
2019-06-26T13:49:33.440Z,81.00
2019-06-26T13:52:04.668Z,80.80
2019-06-26T13:54:35.679Z,81.10
2019-06-26T13:57:06.402Z,80.70
2019-06-26T13:59:37.195Z,77.80
2019-06-26T14:02:08.015Z,77.90
2019-06-26T14:07:10.808Z,77.30
2019-06-26T14:09:41.605Z,78.10
2019-06-26T14:12:12.400Z,77.40
2019-06-26T14:14:56.658Z,77.20
2019-06-26T14:17:15.589Z,77.30
2019-06-26T14:19:46.213Z,76.40
2019-06-26T14:24:47.189Z,76.60
2019-06-26T14:27:17.808Z,75.80
2019-06-26T14:29:48.623Z,75.80
2019-06-26T14:32:19.535Z,75.40
2019-06-26T14:34:52.614Z,74.80
2019-06-26T14:39:53.899Z,75.70
2019-06-26T14:42:24.553Z,76.50
2019-06-26T14:47:36.354Z,76.50
2019-06-26T14:50:07.359Z,77.50
2019-06-26T14:52:38.534Z,76.10
2019-06-26T14:55:09.987Z,77.40
2019-06-26T14:57:40.963Z,78.00
2019-06-26T15:00:12.047Z,78.10
2019-06-26T15:02:43.135Z,76.50
2019-06-26T15:05:14.860Z,75.20
2019-06-26T15:15:23.829Z,75.40
2019-06-26T15:22:58.640Z,76.10
2019-06-26T15:30:29.796Z,74.00
2019-06-26T15:33:00.628Z,73.10
2019-06-26T15:35:31.482Z,72.80
2019-06-26T15:38:04.299Z,72.20
2019-06-26T15:45:35.500Z,72.00
2019-06-26T15:48:09.763Z,70.80
2019-06-26T15:50:41.237Z,70.20
2019-06-26T15:53:12.483Z,70.70
2019-06-26T15:58:21.435Z,68.60
2019-06-26T16:00:53.014Z,69.30
2019-06-26T16:03:23.950Z,69.60
2019-06-26T16:05:58.006Z,67.50
2019-06-26T16:08:32.218Z,67.30
2019-06-26T16:11:04.051Z,67.60
2019-06-26T16:13:35.448Z,67.00
2019-06-26T16:16:06.522Z,67.90
2019-06-26T16:18:43.212Z,68.70
2019-06-26T16:36:14.878Z,70.60
2019-06-26T16:38:45.544Z,70.50
2019-06-26T16:41:17.400Z,69.00
2019-06-26T16:43:48.845Z,70.60
2019-06-26T16:51:26.600Z,71.40
2019-06-26T16:59:01.770Z,68.70
2019-06-26T17:01:32.830Z,68.70
2019-06-26T17:04:03.650Z,68.40
2019-06-26T17:11:34.785Z,68.40
2019-06-26T17:16:35.459Z,69.10
2019-06-26T17:19:06.229Z,68.00
2019-06-26T17:21:36.801Z,66.70
2019-06-26T17:24:07.531Z,67.10
2019-06-26T17:26:38.359Z,69.20
2019-06-26T17:29:09.014Z,69.30
2019-06-26T17:31:41.071Z,67.70
2019-06-26T17:34:12.191Z,68.30
2019-06-26T17:36:43.155Z,68.30
2019-06-26T17:41:44.596Z,68.20
2019-06-26T17:44:15.938Z,69.50
2019-06-26T17:46:46.716Z,69.60
2019-06-26T17:51:47.477Z,70.90
2019-06-26T17:56:48.065Z,69.90
2019-06-26T17:59:18.683Z,70.80
2019-06-26T18:01:49.196Z,70.30
2019-06-26T18:04:19.718Z,69.50
2019-06-26T18:06:50.422Z,66.80
2019-06-26T18:11:51.204Z,67.90
2019-06-26T18:19:23.406Z,70.80
2019-06-26T18:21:54.061Z,71.50
2019-06-26T18:24:25.063Z,72.80
2019-06-26T18:26:55.974Z,71.80
2019-06-26T18:34:42.649Z,73.10
2019-06-26T18:37:13.685Z,73.60
2019-06-26T18:44:44.195Z,73.20
2019-06-26T18:49:46.019Z,75.60
2019-06-26T18:52:16.605Z,78.30
2019-06-26T18:54:48.646Z,81.50
2019-06-26T18:57:19.750Z,81.20
2019-06-26T18:59:51.687Z,82.10
2019-06-26T19:04:54.268Z,87.20
2019-06-26T19:07:25.305Z,90.80
2019-06-26T19:12:26.024Z,91.80
2019-06-26T19:14:56.802Z,92.90
2019-06-26T19:27:27.990Z,99.30
2019-06-26T19:29:58.924Z,99.90
2019-06-26T19:32:29.476Z,99.90
2019-06-26T19:35:08.243Z,99.90
2019-06-26T19:42:33.333Z,99.90
2019-06-26T19:45:04.338Z,99.90
2019-06-26T19:57:35.282Z,99.90
2019-06-26T20:00:07.626Z,99.90
2019-06-26T20:02:38.746Z,99.90
2019-06-26T20:05:09.858Z,99.90
2019-06-26T20:07:40.786Z,99.90
2019-06-26T20:12:42.041Z,99.90
2019-06-26T20:15:13.618Z,99.90
2019-06-26T20:17:51.331Z,99.90
2019-06-26T20:20:19.172Z,99.90
2019-06-26T20:22:50.464Z,99.90
2019-06-26T20:25:21.366Z,99.90
2019-06-26T20:27:56.854Z,99.90
2019-06-26T20:38:01.589Z,99.90
2019-06-26T20:40:32.971Z,99.90
2019-06-26T20:45:35.485Z,99.90
2019-06-26T20:48:06.474Z,99.90
2019-06-26T20:53:08.205Z,99.90
2019-06-26T20:58:10.629Z,99.90
2019-06-26T21:00:41.722Z,99.90
2019-06-26T21:03:12.759Z,99.90
2019-06-26T21:05:43.713Z,99.90
2019-06-26T21:13:14.411Z,99.90
2019-06-26T21:15:45.244Z,99.90
2019-06-26T21:20:45.922Z,99.90
2019-06-26T21:23:18.958Z,99.90
2019-06-26T21:28:18.629Z,99.90
2019-06-26T21:30:49.338Z,99.90
2019-06-26T21:33:20.135Z,99.90
2019-06-26T21:35:51.319Z,99.90
2019-06-26T21:38:26.836Z,99.90
2019-06-26T21:41:03.176Z,99.90
2019-06-26T21:43:42.927Z,99.90
2019-06-26T21:46:21.064Z,99.90
2019-06-26T21:48:59.851Z,99.90
2019-06-26T21:51:35.836Z,99.90
2019-06-26T21:56:57.821Z,99.90
2019-06-26T22:02:37.515Z,99.90
2019-06-26T22:05:11.216Z,99.90
2019-06-26T22:10:31.195Z,99.90
2019-06-26T22:13:01.765Z,99.90
2019-06-26T22:15:32.344Z,99.90
2019-06-26T22:18:02.981Z,99.90
2019-06-26T22:20:33.744Z,99.90
2019-06-26T22:28:05.899Z,99.90
2019-06-26T22:30:36.466Z,99.90
2019-06-26T22:33:07.113Z,99.90
2019-06-26T22:35:37.640Z,99.90
2019-06-26T22:38:08.536Z,99.90
2019-06-26T22:40:39.304Z,99.90
2019-06-26T22:45:39.870Z,99.90
2019-06-26T22:48:10.507Z,99.90
2019-06-26T22:50:41.157Z,99.90
2019-06-26T22:53:11.681Z,99.90
2019-06-26T22:55:42.546Z,99.90
2019-06-26T23:00:43.127Z,99.90
2019-06-26T23:03:14.200Z,99.90
2019-06-26T23:05:45.065Z,99.90
2019-06-26T23:13:15.266Z,99.90
2019-06-26T23:15:46.043Z,99.90
2019-06-26T23:18:18.562Z,99.90
2019-06-26T23:20:49.171Z,99.90
2019-06-26T23:23:20.720Z,99.90
2019-06-26T23:25:51.492Z,99.90
2019-06-26T23:28:21.967Z,99.90
2019-06-26T23:30:52.506Z,99.90
2019-06-26T23:33:22.912Z,99.90
2019-06-26T23:38:23.796Z,99.90
2019-06-26T23:40:54.367Z,99.90
2019-06-26T23:43:25.035Z,99.90
2019-06-26T23:48:25.563Z,99.90
2019-06-26T23:50:56.232Z,99.90
2019-06-26T23:53:26.921Z,99.90
2019-06-26T23:55:57.465Z,99.90
2019-06-26T23:58:28.277Z,99.90
